Main page
METAR-TAF:

METAR-TAF

Airports :

Badajoz, Spain

Badajoz Airport

latitude: 38-53N, longitude: 006-49W, elevation: 185 m

Current weather observation

The report was made 11 minutes ago, at 07:00 UTC
Calm wind
Temperature 5°C
Humidity 93%
Pressure 1022 hPa
Visibility 10 km or more
Scattered clouds at a height of 4500 ft

METAR: LEBZ 180700Z 00000KT 9999 SCT045 05/04 Q1022

Time: 08:11 (07:11 UTC)

Forecast

The report was made 2 hours and 11 minutes ago, at 05:00 UTC
Forecast valid from 18 at 06 UTC to 19 at 06 UTC
Wind 3 kt from the Northeast
Visibility 10 km or more
no clouds below 1500 m and no cumulonimbus

TAF: LEBZ 180500Z 1806/1906 04003KT CAVOK TX16/1815Z TN04/1806Z

Weather observations and forecasts of more than 4000 airports (METAR and TAF reports).

The available stations are represented by yellow and red dots on the map.

Hover mouse over dot to see the name of the station.

Then click to see weather observations and forecasts.

To change the map : click on the green buttons with a black cross to zoom in, on the green button with a dash to zoom out, or on the green arrows for adjacent maps.


METAR-TAF: